createdAt,value
2019-02-02T00:02:17.026Z,6.91
2019-02-02T00:04:49.044Z,6.92
2019-02-02T00:07:21.150Z,6.96
2019-02-02T00:09:53.093Z,6.99
2019-02-02T00:12:25.522Z,6.91
2019-02-02T00:14:57.604Z,6.85
2019-02-02T00:17:30.171Z,6.99
2019-02-02T00:20:02.248Z,6.89
2019-02-02T00:22:34.276Z,6.72
2019-02-02T00:25:07.109Z,6.63
2019-02-02T00:27:41.833Z,6.54
2019-02-02T00:30:14.413Z,6.59
2019-02-02T00:32:46.488Z,6.60
2019-02-02T00:35:18.515Z,6.59
2019-02-02T00:37:50.590Z,6.53
2019-02-02T00:40:22.806Z,6.57
2019-02-02T00:42:54.800Z,6.56
2019-02-02T00:45:26.832Z,6.51
2019-02-02T00:47:59.246Z,6.45
2019-02-02T00:50:31.383Z,6.55
2019-02-02T00:53:03.504Z,6.53
2019-02-02T00:55:35.306Z,6.50
2019-02-02T00:58:07.315Z,6.56
2019-02-02T01:00:39.378Z,6.60
2019-02-02T01:03:11.376Z,6.53
2019-02-02T01:05:45.728Z,6.43
2019-02-02T01:08:17.580Z,6.30
2019-02-02T01:10:52.070Z,6.21
2019-02-02T01:13:23.936Z,6.10
2019-02-02T01:15:55.869Z,6.08
2019-02-02T01:18:28.741Z,6.00
2019-02-02T01:21:00.719Z,5.92
2019-02-02T01:23:32.929Z,5.87
2019-02-02T01:26:05.926Z,5.72
2019-02-02T01:28:37.875Z,5.65
2019-02-02T01:31:09.888Z,5.72
2019-02-02T01:33:42.794Z,5.62
2019-02-02T01:36:14.788Z,5.65
2019-02-02T01:38:46.649Z,5.71
2019-02-02T01:41:18.541Z,5.67
2019-02-02T01:43:50.544Z,5.54
2019-02-02T01:46:22.431Z,5.50
2019-02-02T01:48:54.308Z,5.43
2019-02-02T01:51:26.343Z,5.45
2019-02-02T01:54:00.223Z,5.35
2019-02-02T01:56:32.484Z,5.34
2019-02-02T01:59:08.100Z,5.14
2019-02-02T02:01:41.755Z,5.14
2019-02-02T02:04:13.931Z,5.05
2019-02-02T02:06:45.870Z,4.97
2019-02-02T02:09:17.849Z,4.86
2019-02-02T02:11:49.681Z,4.83
2019-02-02T02:14:21.550Z,4.81
2019-02-02T02:16:53.399Z,4.69
2019-02-02T02:19:25.259Z,4.67
2019-02-02T02:21:57.234Z,4.73
2019-02-02T02:24:29.251Z,4.73
2019-02-02T02:27:01.056Z,4.61
2019-02-02T02:29:33.433Z,4.54
2019-02-02T02:32:05.381Z,4.52
2019-02-02T02:34:37.506Z,4.48
2019-02-02T02:37:09.369Z,4.40
2019-02-02T02:39:41.467Z,4.51
2019-02-02T02:42:13.446Z,4.65
2019-02-02T02:44:45.309Z,4.78
2019-02-02T02:47:17.172Z,4.86
2019-02-02T02:49:48.974Z,4.80
2019-02-02T02:52:20.901Z,4.81
2019-02-02T02:54:52.765Z,4.80
2019-02-02T02:57:25.002Z,4.86
2019-02-02T02:59:56.841Z,5.02
2019-02-02T03:02:28.679Z,5.08
2019-02-02T03:05:02.089Z,4.90
2019-02-02T03:07:35.531Z,4.72
2019-02-02T03:10:09.755Z,4.63
2019-02-02T03:12:41.956Z,4.53
2019-02-02T03:15:14.591Z,4.49
2019-02-02T03:17:47.175Z,4.42
2019-02-02T03:20:20.306Z,4.44
2019-02-02T03:22:52.281Z,4.47
2019-02-02T03:25:25.643Z,4.45
2019-02-02T03:27:57.579Z,4.47
2019-02-02T03:30:29.494Z,4.48
2019-02-02T03:33:01.371Z,4.55
2019-02-02T03:35:33.249Z,4.61
2019-02-02T03:38:05.209Z,4.64
2019-02-02T03:40:37.111Z,4.61
2019-02-02T03:43:09.258Z,4.57
2019-02-02T03:45:41.546Z,4.56
2019-02-02T03:48:14.699Z,4.41
2019-02-02T03:50:46.548Z,4.37
2019-02-02T03:53:20.745Z,4.32
2019-02-02T03:55:52.670Z,4.40
2019-02-02T03:58:24.556Z,4.43
2019-02-02T04:00:56.459Z,4.56
2019-02-02T04:03:28.341Z,4.80
2019-02-02T04:06:00.215Z,4.89
2019-02-02T04:08:32.171Z,5.04
2019-02-02T04:11:04.080Z,5.09
2019-02-02T04:13:37.110Z,5.07
2019-02-02T04:16:09.031Z,5.14
2019-02-02T04:18:41.011Z,5.16
2019-02-02T04:21:12.841Z,5.40
2019-02-02T04:23:44.760Z,5.53
2019-02-02T04:26:16.566Z,5.53
2019-02-02T04:28:48.429Z,5.53
2019-02-02T04:31:20.239Z,5.57
2019-02-02T04:33:52.118Z,5.58
2019-02-02T04:36:24.030Z,5.61
2019-02-02T04:38:55.894Z,5.57
2019-02-02T04:41:27.697Z,5.45
2019-02-02T04:43:59.586Z,5.34
2019-02-02T04:46:31.536Z,5.37
2019-02-02T04:49:03.586Z,5.32
2019-02-02T04:51:35.536Z,5.36
2019-02-02T04:54:07.375Z,5.30
2019-02-02T04:56:39.235Z,5.33
2019-02-02T04:59:11.118Z,5.27
2019-02-02T05:01:44.604Z,5.22
2019-02-02T05:04:16.724Z,5.20
2019-02-02T05:06:48.885Z,5.17
2019-02-02T05:09:20.765Z,5.17
2019-02-02T05:11:52.645Z,5.29
2019-02-02T05:14:24.614Z,5.37
2019-02-02T05:16:56.539Z,5.31
2019-02-02T05:19:28.409Z,5.28
2019-02-02T05:22:00.246Z,5.31
2019-02-02T05:24:32.144Z,5.30
2019-02-02T05:27:04.107Z,5.35
2019-02-02T05:29:41.607Z,5.30
2019-02-02T05:32:09.565Z,5.21
2019-02-02T05:34:43.705Z,5.28
2019-02-02T05:37:15.588Z,5.36
2019-02-02T05:39:47.396Z,5.39
2019-02-02T05:42:19.254Z,5.49
2019-02-02T05:44:52.211Z,5.52
2019-02-02T05:47:24.035Z,5.56
2019-02-02T05:49:55.856Z,5.46
2019-02-02T05:52:27.852Z,5.41
2019-02-02T05:55:01.012Z,5.32
2019-02-02T05:57:32.940Z,5.27
2019-02-02T06:00:08.093Z,5.22
2019-02-02T06:02:39.930Z,5.20
2019-02-02T06:05:11.889Z,5.15
2019-02-02T06:07:43.730Z,5.08
2019-02-02T06:10:16.431Z,5.03
2019-02-02T06:12:48.238Z,5.05
2019-02-02T06:15:20.207Z,5.12
2019-02-02T06:17:52.014Z,5.03
2019-02-02T06:20:23.879Z,5.02
2019-02-02T06:22:55.805Z,5.00
2019-02-02T06:25:27.654Z,5.00
2019-02-02T06:27:59.662Z,5.06
2019-02-02T06:30:31.873Z,5.00
2019-02-02T06:33:03.688Z,5.03
2019-02-02T06:35:35.550Z,5.03
2019-02-02T06:38:07.850Z,4.99
2019-02-02T06:40:39.652Z,4.94
2019-02-02T06:43:11.642Z,4.89
2019-02-02T06:45:45.120Z,4.89
2019-02-02T06:48:17.657Z,4.91
2019-02-02T06:50:49.490Z,4.94
2019-02-02T06:53:21.337Z,4.89
2019-02-02T06:55:53.205Z,4.92
2019-02-02T06:58:25.017Z,4.87
2019-02-02T07:00:56.859Z,4.86
2019-02-02T07:03:28.721Z,4.80
2019-02-02T07:06:00.543Z,4.87
2019-02-02T07:08:32.512Z,4.84
2019-02-02T07:11:04.581Z,4.84
2019-02-02T07:13:36.429Z,4.83
2019-02-02T07:16:08.255Z,4.78
2019-02-02T07:18:40.151Z,4.76
2019-02-02T07:21:12.036Z,4.73
2019-02-02T07:23:43.911Z,4.67
2019-02-02T07:26:15.716Z,4.71
2019-02-02T07:28:47.587Z,4.63
2019-02-02T07:31:19.459Z,4.55
2019-02-02T07:33:51.301Z,4.57
2019-02-02T07:36:23.112Z,4.55
2019-02-02T07:38:54.972Z,4.47
2019-02-02T07:41:26.836Z,4.45
2019-02-02T07:43:58.741Z,4.53
2019-02-02T07:46:31.743Z,4.38
2019-02-02T07:49:03.588Z,4.32
2019-02-02T07:51:35.450Z,4.22
2019-02-02T07:54:07.412Z,4.14
2019-02-02T07:56:39.303Z,4.12
2019-02-02T07:59:11.132Z,4.01
2019-02-02T08:01:44.606Z,4.12
2019-02-02T08:04:18.148Z,4.14
2019-02-02T08:06:50.023Z,4.22
2019-02-02T08:09:21.824Z,4.27
2019-02-02T08:11:53.684Z,4.40
2019-02-02T08:14:25.491Z,4.53
2019-02-02T08:16:57.364Z,4.56
2019-02-02T08:19:29.162Z,4.48
2019-02-02T08:22:01.078Z,4.50
2019-02-02T08:24:32.883Z,4.51
2019-02-02T08:27:04.821Z,4.57
2019-02-02T08:29:36.810Z,4.61
2019-02-02T08:32:10.402Z,4.65
2019-02-02T08:34:42.337Z,4.74
2019-02-02T08:37:14.335Z,4.79
2019-02-02T08:39:46.144Z,4.94
2019-02-02T08:42:18.050Z,4.90
2019-02-02T08:44:49.946Z,4.91
2019-02-02T08:47:21.812Z,4.87
2019-02-02T08:49:53.705Z,5.02
2019-02-02T08:52:25.573Z,5.09
2019-02-02T08:54:57.445Z,5.35
2019-02-02T08:57:29.325Z,5.58
2019-02-02T09:00:06.011Z,5.76
2019-02-02T09:02:37.849Z,5.94
2019-02-02T09:05:10.716Z,6.07
2019-02-02T09:07:42.956Z,6.12
2019-02-02T09:10:17.681Z,6.15
2019-02-02T09:12:49.666Z,6.44
2019-02-02T09:15:21.843Z,6.52
2019-02-02T09:17:55.447Z,6.82
2019-02-02T09:20:27.299Z,7.07
2019-02-02T09:23:05.935Z,7.19
2019-02-02T09:25:32.987Z,7.44
2019-02-02T09:28:04.902Z,7.53
2019-02-02T09:30:39.637Z,8.28
2019-02-02T09:33:13.145Z,10.09
2019-02-02T09:35:45.022Z,12.22
2019-02-02T09:38:16.848Z,14.03
2019-02-02T09:40:48.779Z,15.13
2019-02-02T09:43:20.641Z,17.09
2019-02-02T09:45:54.509Z,17.57
2019-02-02T09:48:26.359Z,18.23
2019-02-02T09:50:58.198Z,17.83
2019-02-02T09:53:30.060Z,18.83
2019-02-02T09:56:01.899Z,19.73
2019-02-02T09:58:33.846Z,19.48
2019-02-02T10:01:06.683Z,21.76
2019-02-02T10:03:38.753Z,21.36
2019-02-02T10:06:10.701Z,19.79
2019-02-02T10:08:42.502Z,18.54
2019-02-02T10:11:16.236Z,16.90
2019-02-02T10:13:48.056Z,17.65
2019-02-02T10:16:21.410Z,17.52
2019-02-02T10:18:53.610Z,17.05
2019-02-02T10:21:25.487Z,16.47
2019-02-02T10:23:57.440Z,16.62
2019-02-02T10:29:48.568Z,17.10
2019-02-02T10:32:39.414Z,17.03
2019-02-02T10:35:30.373Z,16.92
2019-02-02T10:38:20.564Z,16.73
2019-02-02T10:41:10.990Z,18.32
2019-02-02T10:44:00.982Z,18.05
2019-02-02T10:46:51.414Z,17.86
2019-02-02T10:49:41.771Z,16.94
2019-02-02T10:52:31.891Z,16.42
2019-02-02T10:55:23.378Z,17.34
2019-02-02T10:58:14.171Z,17.26
2019-02-02T11:01:05.240Z,17.79
2019-02-02T11:03:56.681Z,18.16
2019-02-02T11:06:47.189Z,18.40
2019-02-02T11:09:37.833Z,18.02
2019-02-02T11:12:28.702Z,18.41
2019-02-02T11:15:20.503Z,17.21
2019-02-02T11:18:11.701Z,18.86
2019-02-02T11:21:02.649Z,18.87
2019-02-02T11:23:53.453Z,19.91
2019-02-02T11:26:44.175Z,19.96
2019-02-02T11:29:37.503Z,18.31
2019-02-02T11:32:28.384Z,19.22
2019-02-02T11:35:18.974Z,18.95
2019-02-02T11:38:09.749Z,18.78
2019-02-02T11:41:00.456Z,18.52
2019-02-02T11:43:51.855Z,18.79
2019-02-02T11:46:42.335Z,20.40
2019-02-02T11:49:33.302Z,19.97
2019-02-02T11:52:24.113Z,19.42
2019-02-02T11:55:15.998Z,19.78
2019-02-02T11:58:06.542Z,20.20
2019-02-02T12:00:57.282Z,21.53
2019-02-02T12:03:48.182Z,19.83
2019-02-02T12:06:41.101Z,20.11
2019-02-02T12:09:31.857Z,19.46
2019-02-02T12:12:24.129Z,20.17
2019-02-02T12:15:16.042Z,19.41
2019-02-02T12:18:07.463Z,18.95
2019-02-02T12:20:57.545Z,18.19
2019-02-02T12:23:48.149Z,16.62
2019-02-02T12:26:38.492Z,17.08
2019-02-02T12:30:41.655Z,17.78
2019-02-02T12:33:15.408Z,16.15
2019-02-02T12:35:49.976Z,15.50
2019-02-02T12:38:22.006Z,16.89
2019-02-02T12:40:54.076Z,18.07
2019-02-02T12:43:26.017Z,17.20
2019-02-02T12:45:58.025Z,17.09
2019-02-02T12:48:32.239Z,16.99
2019-02-02T12:51:03.923Z,16.79
2019-02-02T12:53:35.911Z,18.54
2019-02-02T12:56:07.951Z,19.06
2019-02-02T12:58:39.997Z,19.72
2019-02-02T13:01:13.443Z,19.08
2019-02-02T13:03:45.567Z,18.83
2019-02-02T13:06:17.570Z,19.35
2019-02-02T13:08:49.491Z,20.30
2019-02-02T13:11:23.899Z,20.49
2019-02-02T13:13:55.172Z,20.72
2019-02-02T13:16:27.151Z,18.92
2019-02-02T13:18:59.118Z,17.07
2019-02-02T13:21:31.194Z,15.34
2019-02-02T13:24:03.725Z,15.35
2019-02-02T13:26:35.999Z,14.88
2019-02-02T13:29:08.038Z,14.16
2019-02-02T13:31:43.093Z,13.78
2019-02-02T13:34:15.273Z,13.89
2019-02-02T13:36:47.374Z,13.71
2019-02-02T13:39:19.382Z,14.00
2019-02-02T13:41:51.327Z,14.03
2019-02-02T13:44:23.313Z,14.53
2019-02-02T13:46:55.265Z,14.79
2019-02-02T13:49:27.144Z,14.22
2019-02-02T13:51:59.082Z,13.86
2019-02-02T13:54:30.998Z,13.66
2019-02-02T13:57:04.861Z,13.59
2019-02-02T13:59:36.818Z,13.42
2019-02-02T14:02:08.730Z,13.18
2019-02-02T14:04:40.675Z,13.14
2019-02-02T14:07:18.284Z,12.98
2019-02-02T14:09:46.289Z,12.78
2019-02-02T14:12:18.263Z,13.15
2019-02-02T14:14:56.634Z,13.29
2019-02-02T14:17:31.811Z,13.33
2019-02-02T14:20:03.789Z,13.30
2019-02-02T14:22:36.670Z,13.26
2019-02-02T14:25:09.170Z,13.03
2019-02-02T14:27:43.433Z,13.44
2019-02-02T14:30:26.244Z,13.15
2019-02-02T14:32:58.497Z,12.85
2019-02-02T14:35:30.622Z,12.82
2019-02-02T14:38:04.655Z,12.77
2019-02-02T14:40:37.107Z,13.22
2019-02-02T14:43:09.048Z,13.42
2019-02-02T14:45:41.007Z,13.20
2019-02-02T14:48:13.099Z,13.39
2019-02-02T14:50:45.053Z,13.25
2019-02-02T14:53:17.009Z,13.21
2019-02-02T14:55:50.578Z,13.45
2019-02-02T14:58:22.677Z,13.08
2019-02-02T15:00:54.704Z,13.29
2019-02-02T15:03:29.135Z,13.27
2019-02-02T15:06:01.103Z,13.28
2019-02-02T15:08:33.749Z,13.33
2019-02-02T15:11:06.415Z,13.05
2019-02-02T15:13:38.400Z,13.01
2019-02-02T15:16:10.443Z,12.77
2019-02-02T15:18:42.450Z,12.65
2019-02-02T15:21:14.831Z,12.66
2019-02-02T15:23:46.867Z,12.67
2019-02-02T15:26:18.907Z,12.52
2019-02-02T15:28:51.059Z,12.59
2019-02-02T15:31:23.070Z,12.55
2019-02-02T15:33:55.086Z,12.37
2019-02-02T15:36:27.123Z,12.29
2019-02-02T15:38:59.152Z,12.16
2019-02-02T15:41:31.282Z,11.94
2019-02-02T15:44:03.215Z,11.95
2019-02-02T15:46:35.220Z,11.69
2019-02-02T15:49:07.154Z,11.53
2019-02-02T15:51:40.543Z,11.51
2019-02-02T15:54:12.714Z,11.44
2019-02-02T15:56:44.752Z,11.49
2019-02-02T15:59:19.424Z,11.45
2019-02-02T16:01:51.872Z,11.50
2019-02-02T16:04:23.886Z,11.51
2019-02-02T16:06:56.006Z,11.55
2019-02-02T16:09:28.910Z,11.62
2019-02-02T16:12:03.015Z,11.64
2019-02-02T16:14:35.148Z,11.75
2019-02-02T16:17:12.018Z,11.75
2019-02-02T16:19:44.201Z,11.67
2019-02-02T16:22:19.020Z,11.52
2019-02-02T16:24:55.548Z,11.52
2019-02-02T16:27:28.002Z,11.56
2019-02-02T16:30:05.346Z,11.42
2019-02-02T16:32:37.334Z,11.53
2019-02-02T16:35:10.778Z,11.45
2019-02-02T16:37:42.956Z,11.49
2019-02-02T16:40:17.483Z,11.42
2019-02-02T16:42:53.497Z,11.27
2019-02-02T16:45:26.627Z,11.04
2019-02-02T16:47:59.163Z,10.94
2019-02-02T16:50:31.342Z,10.78
2019-02-02T16:53:03.530Z,10.71
2019-02-02T16:55:35.543Z,10.68
2019-02-02T16:58:08.174Z,10.66
2019-02-02T17:00:40.304Z,10.57
2019-02-02T17:03:12.372Z,10.47
2019-02-02T17:05:44.392Z,10.44
2019-02-02T17:08:17.769Z,10.31
2019-02-02T17:10:49.925Z,10.29
2019-02-02T17:13:22.676Z,10.30
2019-02-02T17:15:55.215Z,10.25
2019-02-02T17:18:27.397Z,10.23
2019-02-02T17:21:00.270Z,10.13
2019-02-02T17:23:35.328Z,10.01
2019-02-02T17:26:08.739Z,9.98
2019-02-02T17:28:40.939Z,9.85
2019-02-02T17:31:12.961Z,9.85
2019-02-02T17:33:45.105Z,9.81
2019-02-02T17:36:17.394Z,9.75
2019-02-02T17:38:49.526Z,9.72
2019-02-02T17:41:21.485Z,9.65
2019-02-02T17:43:53.509Z,9.56
2019-02-02T17:46:25.886Z,9.52
2019-02-02T17:48:57.995Z,9.46
2019-02-02T17:51:30.081Z,9.35
2019-02-02T17:54:04.405Z,9.34
2019-02-02T17:56:36.402Z,9.31
2019-02-02T17:59:08.654Z,9.30
2019-02-02T18:01:41.472Z,9.23
2019-02-02T18:04:13.860Z,9.16
2019-02-02T18:06:46.310Z,9.11
2019-02-02T18:09:18.313Z,9.06
2019-02-02T18:11:50.401Z,9.02
2019-02-02T18:14:22.433Z,8.96
2019-02-02T18:16:57.822Z,8.92
2019-02-02T18:19:29.912Z,8.83
2019-02-02T18:22:03.743Z,8.74
2019-02-02T18:24:35.835Z,8.69
2019-02-02T18:27:09.355Z,8.69
2019-02-02T18:29:45.054Z,8.66
2019-02-02T18:32:17.201Z,8.64
2019-02-02T18:34:51.298Z,8.59
2019-02-02T18:37:23.442Z,8.51
2019-02-02T18:39:55.446Z,8.45
2019-02-02T18:42:27.851Z,8.36
2019-02-02T18:45:01.230Z,8.36
2019-02-02T18:47:34.173Z,8.31
2019-02-02T18:50:11.455Z,8.21
2019-02-02T18:52:44.820Z,8.21
2019-02-02T18:55:20.697Z,8.15
2019-02-02T18:57:54.831Z,8.17
2019-02-02T19:00:28.893Z,8.11
2019-02-02T19:03:02.360Z,8.08
2019-02-02T19:05:34.993Z,8.12
2019-02-02T19:08:08.985Z,8.07
2019-02-02T19:10:42.586Z,7.98
2019-02-02T19:13:14.897Z,7.87
2019-02-02T19:15:47.034Z,7.87
2019-02-02T19:18:20.233Z,7.83
2019-02-02T19:20:52.983Z,7.80
2019-02-02T19:23:26.036Z,7.79
2019-02-02T19:25:59.192Z,7.78
2019-02-02T19:28:39.990Z,7.76
2019-02-02T19:31:09.157Z,7.72
2019-02-02T19:33:41.564Z,7.70
2019-02-02T19:36:13.734Z,7.71
2019-02-02T19:38:46.440Z,7.67
2019-02-02T19:41:18.540Z,7.61
2019-02-02T19:43:50.711Z,7.73
2019-02-02T19:46:23.254Z,7.71
2019-02-02T19:48:55.651Z,7.70
2019-02-02T19:51:27.635Z,7.64
2019-02-02T19:53:59.737Z,7.67
2019-02-02T19:56:31.795Z,7.69
2019-02-02T19:59:04.082Z,7.65
2019-02-02T20:01:38.215Z,7.60
2019-02-02T20:04:10.587Z,7.61
2019-02-02T20:06:42.756Z,7.57
2019-02-02T20:09:17.377Z,7.53
2019-02-02T20:11:49.923Z,7.50
2019-02-02T20:14:22.065Z,7.39
2019-02-02T20:16:56.043Z,7.29
2019-02-02T20:19:28.131Z,7.19
2019-02-02T20:22:00.154Z,7.12
2019-02-02T20:24:32.218Z,6.99
2019-02-02T20:27:06.313Z,6.90
2019-02-02T20:29:38.302Z,6.77
2019-02-02T20:32:10.675Z,6.69
2019-02-02T20:34:42.993Z,6.62
2019-02-02T20:37:15.059Z,6.51
2019-02-02T20:39:48.908Z,6.51
2019-02-02T20:42:21.102Z,6.49
2019-02-02T20:44:53.147Z,6.54
2019-02-02T20:47:26.192Z,6.48
2019-02-02T20:49:58.610Z,6.48
2019-02-02T20:52:30.993Z,6.41
2019-02-02T20:55:03.772Z,6.42
2019-02-02T20:57:35.882Z,6.24
2019-02-02T21:00:17.322Z,6.14
2019-02-02T21:02:49.978Z,6.07
2019-02-02T21:05:22.133Z,6.06
2019-02-02T21:07:55.294Z,6.03
2019-02-02T21:10:27.906Z,6.03
2019-02-02T21:13:24.779Z,6.00
2019-02-02T21:16:08.084Z,5.96
2019-02-02T21:18:46.734Z,5.85
2019-02-02T21:21:19.820Z,5.73
2019-02-02T21:23:54.851Z,5.65
2019-02-02T21:26:29.002Z,5.64
2019-02-02T21:29:01.288Z,5.71
2019-02-02T21:31:33.323Z,5.61
2019-02-02T21:34:05.852Z,5.54
2019-02-02T21:36:45.150Z,5.49
2019-02-02T21:39:17.260Z,5.52
2019-02-02T21:41:49.282Z,5.47
2019-02-02T21:44:21.326Z,5.51
2019-02-02T21:47:05.172Z,5.41
2019-02-02T21:49:37.231Z,5.25
2019-02-02T21:52:10.208Z,5.17
2019-02-02T21:55:05.431Z,5.23
2019-02-02T21:57:37.545Z,5.18
2019-02-02T22:00:14.912Z,5.06
2019-02-02T22:02:50.043Z,5.10
2019-02-02T22:05:23.231Z,4.95
2019-02-02T22:07:55.740Z,4.90
2019-02-02T22:10:27.938Z,4.57
2019-02-02T22:13:00.854Z,4.54
2019-02-02T22:15:34.617Z,4.49
2019-02-02T22:18:07.237Z,4.46
2019-02-02T22:20:39.520Z,4.43
2019-02-02T22:23:12.068Z,4.51
2019-02-02T22:25:44.236Z,4.46
2019-02-02T22:28:17.756Z,4.43
2019-02-02T22:30:53.137Z,4.41
2019-02-02T22:33:27.667Z,4.19
2019-02-02T22:36:00.013Z,4.14
2019-02-02T22:38:33.668Z,4.27
2019-02-02T22:41:06.998Z,4.29
2019-02-02T22:43:40.191Z,4.34
2019-02-02T22:46:12.274Z,4.21
2019-02-02T22:48:44.264Z,4.27
2019-02-02T22:51:17.134Z,4.28
2019-02-02T22:53:49.610Z,4.24
2019-02-02T22:56:21.723Z,4.08
2019-02-02T22:58:53.801Z,3.92
2019-02-02T23:01:37.252Z,3.86
2019-02-02T23:04:49.189Z,3.74
2019-02-02T23:07:50.471Z,3.79
2019-02-02T23:11:12.367Z,3.70
2019-02-02T23:14:24.300Z,3.70
2019-02-02T23:16:58.886Z,3.58
2019-02-02T23:19:41.948Z,3.57
2019-02-02T23:22:15.814Z,3.61
2019-02-02T23:24:49.398Z,3.63
2019-02-02T23:27:23.864Z,3.53
2019-02-02T23:29:57.481Z,3.45
2019-02-02T23:32:32.719Z,3.46
2019-02-02T23:35:08.326Z,3.32
2019-02-02T23:37:43.281Z,3.41
2019-02-02T23:40:18.043Z,3.44
2019-02-02T23:42:50.815Z,3.53
2019-02-02T23:45:27.332Z,3.54
2019-02-02T23:48:04.400Z,3.51
2019-02-02T23:50:38.524Z,3.46
2019-02-02T23:53:11.298Z,3.39
2019-02-02T23:55:47.862Z,3.32
2019-02-02T23:58:22.147Z,3.22
